Etusivu
METAR-TAF:

METAR-TAF

Lentoasemat :

Áktion lentoasema

Preveza, Kreikka

Leveyspiiri: 38-37N, Pituuspiiri: 020-46E, korkeus merenpinnasta: 4 m

Tämänhetkinen sää

Tämä raportti tehtiin 22 minuuttia sitten, kello 22.50 UTC
Tuuli 4 kn luoteesta
Lämpötila 25°C
Kosteus 83%
Ilmanpaine 1007 hPa
Näkyvyys 10 km tai enemmän
Muutamia pilviä 8000 ft:n korkeudessa

METAR: LGPZ 222250Z 31004KT 9999 FEW080 25/22 Q1007

Aika: 02:12 (23:12 UTC)

Sääennuste

Tämä raportti tehtiin 6 tuntia ja 12 minuuttia sitten, kello 17.00 UTC
Ennuste voimassa 22. päivästä klo 18 UTC - 23. päivään klo 18 UTC
Tuuli 12 kn lännestä
Näkyvyys 10 km tai enemmän
Muutamia pilviä 2500 ft:n korkeudessa
Tulossa
22. päivästä klo 18 UTC - 22. päivään klo 20 UTC
Tuuli 5 kn eri suunnista
Tulossa
23. päivästä klo 09 UTC - 23. päivään klo 11 UTC
Tuuli 12 kn lännestä

TAF: LGPZ 221700Z 2218/2318 27012KT 9999 FEW025 BECMG 2218/2220 VRB05KT BECMG 2309/2311 27012KT

Säähavainnot ja -ennusteet yli 4000 lentoasemalta (METAR- ja TAF-raportit).

Käytössä olevat sääasemat on merkitty karttaan keltaisilla ja punaisilla pisteillä.

Aseta hiiri pisteen päälle nähdäksesi sääaseman nimen.

Klikkaa sitten nähdäksesi säähavainnot ja -ennusteet.

Kartan vaihtaminen: klikkaa mustalla rastilla varustettuja vihreitä pisteitä, niin voit zoomata sisään; viivalla varustettua vihreää pistettä, niin voit zoomata ulos tai vihreitä nuolia, niin pääset viereisille kartoille.


METAR-TAF: